Terminal Aerodrome Forecast
Issued by NWS

Home | Current Version | Previous Version | Graphics & Text | Print | Product List | Glossary On
Versions: 1 2 3 4 5 6 7 8 9 10 11 12 13 14 15 16 17 18 19
000
FTUS43 KICT 010500
TAFHUT
TAF
KHUT 010520Z 0106/0206 21010KT P6SM VCTS SCT050CB BKN070
      TEMPO 0107/0110 VRB25G35KT 1SM +TSRA OVC030CB
     FM011000 VRB06KT P6SM SCT050 OVC120
     FM011700 35010KT P6SM SCT120
     FM020000 02004KT P6SM SCT120=

USA.gov is the U.S. government's official web portal to all federal, state and local government web resources and services.